Time;durP1;ratioP1;P1;durP2;ratioP2;P2;SDS_P1;SDS_P2;PMS_P1;PMS_P2;Temp;Humidity;BMP_temperature;BMP_pressure;BME280_temperature;BME280_humidity;BME280_pressure;Samples;Min_cycle;Max_cycle;Signal;HPM_P1;HPM_P2
2023/07/24 14:18:31;;;;;;;6.00;3.00;;;;;;;31.19;36.17;100656.17;107088;1282;72451;-78
2023/07/24 14:21:22;;;;;;;5.80;3.20;;;;;;;31.19;36.05;100658.88;107042;1282;74265;-78
2023/07/24 14:23:47;;;;;;;6.40;3.10;;;;;;;31.10;35.88;100659.52;107047;1283;72552;-77
2023/07/24 14:26:13;;;;;;;4.70;2.80;;;;;;;31.00;35.72;100663.18;106516;1283;58400;-78
2023/07/24 14:28:38;;;;;;;5.40;3.30;;;;;;;30.99;35.91;100663.82;107084;1283;58383;-79
2023/07/24 14:31:06;;;;;;;3.70;2.90;;;;;;;30.92;35.98;100660.71;107086;1283;58207;-78
2023/07/24 15:07:25;;;;;;;5.00;3.00;;;;;;;31.21;37.27;100628.96;107150;1283;73427;-83
2023/07/24 15:09:50;;;;;;;7.90;3.30;;;;;;;31.25;37.10;100628.48;107091;1283;72402;-81
2023/07/24 15:12:15;;;;;;;6.60;3.20;;;;;;;31.34;36.75;100629.18;106688;1283;58966;-81
2023/07/24 15:14:41;;;;;;;4.30;3.00;;;;;;;31.39;36.48;100627.05;107125;1283;59038;-82
2023/07/24 15:17:07;;;;;;;4.80;2.90;;;;;;;31.40;36.56;100628.47;107107;1283;59439;-82
2023/07/24 15:19:32;;;;;;;8.20;3.10;;;;;;;31.32;36.44;100625.67;107138;1283;59028;-82
2023/07/24 15:21:58;;;;;;;5.80;2.80;;;;;;;31.17;36.83;100620.69;107085;1283;61204;-81
2023/07/24 15:24:23;;;;;;;5.80;3.40;;;;;;;31.07;36.36;100619.27;107097;1283;59062;-82
2023/07/24 15:26:49;;;;;;;4.30;2.80;;;;;;;31.05;37.32;100622.54;107095;1283;59055;-82
2023/07/24 15:29:15;;;;;;;5.60;3.00;;;;;;;31.01;36.67;100615.78;107088;1283;59106;-81
2023/07/24 15:31:40;;;;;;;4.80;3.20;;;;;;;30.92;37.38;100614.83;106694;1283;59236;-80
2023/07/24 15:34:07;;;;;;;7.30;3.00;;;;;;;30.81;36.96;100613.31;107049;1283;59497;-81
2023/07/24 15:36:34;;;;;;;26.60;4.80;;;;;;;30.73;37.34;100613.54;107075;1283;59370;-81
2023/07/24 15:38:59;;;;;;;5.60;3.20;;;;;;;30.66;37.33;100619.73;107074;1285;74884;-81
2023/07/24 15:41:25;;;;;;;4.10;3.00;;;;;;;30.50;37.97;100619.73;106869;1283;59099;-81
2023/07/24 15:43:50;;;;;;;4.80;3.10;;;;;;;30.40;38.01;100622.89;107082;1283;59094;-81
2023/07/24 15:46:16;;;;;;;9.50;3.30;;;;;;;30.37;38.07;100621.36;107066;1283;59146;-81
2023/07/24 15:48:41;;;;;;;8.00;3.20;;;;;;;30.24;38.80;100622.13;107131;1285;59140;-80
2023/07/24 15:51:07;;;;;;;7.00;3.10;;;;;;;30.12;38.44;100624.61;107055;1283;59033;-80
2023/07/24 15:53:32;;;;;;;4.20;3.00;;;;;;;29.93;37.99;100623.20;107091;1283;59038;-82
2023/07/24 15:55:58;;;;;;;7.40;3.30;;;;;;;29.76;38.69;100624.48;107111;1283;59016;-80
2023/07/24 15:58:31;;;;;;;6.60;3.30;;;;;;;29.66;38.88;100624.91;106857;1283;59070;-81
2023/07/24 16:00:56;;;;;;;7.20;3.10;;;;;;;29.61;38.90;100622.41;107044;1283;74508;-81
2023/07/24 16:03:22;;;;;;;5.90;3.40;;;;;;;29.55;39.11;100621.89;107069;1283;59068;-81
2023/07/24 16:05:47;;;;;;;6.80;3.00;;;;;;;29.49;39.39;100621.23;107052;1283;59104;-80
2023/07/24 16:08:13;;;;;;;4.90;3.30;;;;;;;29.39;40.38;100624.58;107081;1283;59150;-80
2023/07/24 16:10:40;;;;;;;5.40;3.00;;;;;;;29.36;40.78;100624.56;106632;1283;59105;-81
2023/07/24 16:13:05;;;;;;;6.90;2.90;;;;;;;29.33;41.84;100623.99;107065;1283;73693;-80
2023/07/24 16:15:31;;;;;;;3.50;2.90;;;;;;;29.28;42.68;100622.77;107086;1283;59246;-80
2023/07/24 16:17:56;;;;;;;6.40;3.10;;;;;;;29.26;42.64;100620.05;106885;1283;59334;-80
2023/07/24 16:20:22;;;;;;;4.10;3.20;;;;;;;29.20;43.54;100624.93;106823;1283;59134;-80
2023/07/24 16:22:47;;;;;;;5.10;3.10;;;;;;;29.09;42.49;100620.17;106905;1283;59399;-81
2023/07/24 16:25:13;;;;;;;3.50;3.00;;;;;;;28.97;42.24;100618.88;107027;1283;61137;-80
2023/07/24 16:27:38;;;;;;;7.80;3.20;;;;;;;28.87;43.62;100620.77;107091;1283;58997;-80
2023/07/24 16:30:04;;;;;;;6.80;3.30;;;;;;;28.74;44.78;100617.81;107054;1283;58988;-80
2023/07/24 16:32:30;;;;;;;6.20;3.10;;;;;;;28.57;45.66;100619.02;107062;1283;59095;-81
2023/07/24 16:34:56;;;;;;;7.00;3.60;;;;;;;28.41;46.51;100617.26;106536;1283;59174;-80
2023/07/24 16:37:21;;;;;;;6.90;3.70;;;;;;;28.27;46.93;100621.54;107142;1283;58976;-80
2023/07/24 16:39:46;;;;;;;10.80;3.80;;;;;;;28.11;47.81;100617.33;107076;1283;59404;-80
2023/07/24 16:42:12;;;;;;;10.20;3.80;;;;;;;27.94;48.12;100621.48;106865;1283;59362;-80
2023/07/24 16:44:38;;;;;;;5.20;3.20;;;;;;;27.71;48.81;100621.17;107028;1283;59067;-80
2023/07/24 16:47:03;;;;;;;6.80;3.00;;;;;;;27.51;49.86;100618.20;107029;1283;59083;-81
2023/07/24 16:49:29;;;;;;;9.50;3.70;;;;;;;27.27;49.95;100621.81;107115;1283;59032;-80
2023/07/24 16:51:54;;;;;;;8.50;3.70;;;;;;;27.06;50.79;100620.27;106844;1283;74705;-80
2023/07/24 16:54:20;;;;;;;10.00;4.40;;;;;;;26.90;52.13;100616.23;106640;1283;59593;-80
2023/07/24 16:56:46;;;;;;;6.60;3.60;;;;;;;26.75;53.74;100617.65;106729;1283;59042;-80
2023/07/24 16:59:11;;;;;;;9.90;4.10;;;;;;;26.54;54.14;100611.76;107081;1283;59050;-81
2023/07/24 17:01:36;;;;;;;10.70;3.60;;;;;;;26.32;55.46;100610.63;106725;1283;59068;-81
2023/07/24 17:04:02;;;;;;;6.50;3.60;;;;;;;26.09;55.78;100615.88;106827;1283;72643;-81
2023/07/24 17:06:28;;;;;;;12.10;3.60;;;;;;;25.90;57.05;100614.38;107082;1283;59063;-80
2023/07/24 17:08:53;;;;;;;10.00;4.20;;;;;;;25.73;58.56;100611.64;107081;1283;59338;-81
2023/07/24 17:11:19;;;;;;;11.80;4.50;;;;;;;25.59;60.73;100615.45;107060;1283;59108;-81
2023/07/24 17:13:44;;;;;;;9.10;3.90;;;;;;;25.42;61.98;100614.44;107062;1283;59089;-81
2023/07/24 17:16:10;;;;;;;16.00;4.10;;;;;;;25.27;62.28;100614.17;107049;1283;61903;-81
2023/07/24 17:18:35;;;;;;;8.40;3.30;;;;;;;25.13;63.60;100611.86;107059;1283;59087;-81
2023/07/24 17:21:02;;;;;;;10.00;4.30;;;;;;;24.93;63.21;100614.53;107070;1283;59317;-80
2023/07/24 17:23:28;;;;;;;10.00;3.70;;;;;;;24.78;65.83;100616.21;107021;1283;59064;-81
2023/07/24 17:25:53;;;;;;;14.70;5.00;;;;;;;24.63;66.47;100612.84;107021;1283;59009;-81
2023/07/24 17:28:19;;;;;;;9.30;4.30;;;;;;;24.44;68.09;100613.20;107105;1283;58928;-80
2023/07/24 17:30:44;;;;;;;10.10;4.20;;;;;;;24.25;70.92;100613.37;106790;1286;74300;-81
2023/07/24 17:33:10;;;;;;;10.80;4.50;;;;;;;24.09;72.95;100612.31;106674;1283;59100;-80
2023/07/24 17:35:35;;;;;;;8.30;4.50;;;;;;;23.89;72.76;100614.17;107044;1283;59120;-80
2023/07/24 17:38:01;;;;;;;10.30;4.60;;;;;;;23.72;74.18;100617.45;106593;1283;59435;-80
2023/07/24 17:40:26;;;;;;;10.10;4.60;;;;;;;23.53;75.48;100620.02;107149;1283;59379;-79
2023/07/24 17:42:52;;;;;;;12.50;5.10;;;;;;;23.36;77.15;100619.42;107009;1283;74269;-80
2023/07/24 17:45:18;;;;;;;11.60;5.40;;;;;;;23.23;79.41;100622.14;107007;1283;59162;-80
2023/07/24 17:47:44;;;;;;;10.00;5.50;;;;;;;23.08;82.50;100627.44;106826;1283;58986;-80
2023/07/24 17:50:10;;;;;;;12.40;5.30;;;;;;;22.96;81.27;100630.23;107077;1283;59321;-80
2023/07/24 17:52:36;;;;;;;9.90;4.80;;;;;;;22.84;84.02;100635.09;107070;1283;59010;-80
2023/07/24 17:55:02;;;;;;;12.40;5.70;;;;;;;22.70;86.55;100637.29;107031;1283;59127;-80
2023/07/24 17:57:28;;;;;;;12.20;5.90;;;;;;;22.55;88.24;100637.65;107040;1283;58986;-80
2023/07/24 17:59:54;;;;;;;21.60;6.90;;;;;;;22.38;90.79;100637.70;107120;1287;58925;-81
2023/07/24 18:02:20;;;;;;;12.10;6.20;;;;;;;22.22;92.60;100639.91;107055;1283;75340;-80
2023/07/24 18:04:45;;;;;;;18.80;6.80;;;;;;;22.06;94.87;100642.52;107068;1283;59315;-80
2023/07/24 18:07:11;;;;;;;12.40;6.90;;;;;;;21.91;94.32;100650.61;106650;1283;59098;-81
2023/07/24 18:09:36;;;;;;;18.40;6.80;;;;;;;21.84;97.44;100653.93;107072;1284;59121;-80
2023/07/24 18:12:02;;;;;;;18.30;7.40;;;;;;;21.75;99.58;100655.41;106699;1283;59109;-80
2023/07/24 18:14:28;;;;;;;20.90;7.50;;;;;;;21.64;100.00;100661.11;106702;1283;74328;-80
2023/07/24 18:16:53;;;;;;;22.10;7.10;;;;;;;21.54;100.00;100659.52;106807;1283;59079;-80
2023/07/24 18:19:19;;;;;;;24.10;8.30;;;;;;;21.47;100.00;100667.24;107038;1283;58996;-80
2023/07/24 18:21:44;;;;;;;17.20;7.70;;;;;;;21.36;100.00;100664.33;107020;1283;59025;-80
2023/07/24 18:24:10;;;;;;;29.10;7.80;;;;;;;21.32;100.00;100662.42;107154;1283;59055;-80
2023/07/24 18:26:36;;;;;;;36.20;9.30;;;;;;;21.27;100.00;100664.19;107040;1283;73213;-81
2023/07/24 18:29:02;;;;;;;28.20;9.40;;;;;;;21.15;100.00;100665.42;107059;1283;59007;-80
2023/07/24 18:31:28;;;;;;;31.40;8.70;;;;;;;21.01;100.00;100665.30;106811;1283;59124;-80
2023/07/24 18:33:54;;;;;;;33.70;9.20;;;;;;;20.91;100.00;100664.51;107063;1283;59069;-80
2023/07/24 18:36:20;;;;;;;26.50;9.80;;;;;;;20.85;100.00;100660.04;107088;1283;59282;-80
2023/07/24 18:38:45;;;;;;;24.80;8.80;;;;;;;20.82;100.00;100657.38;107011;1283;59022;-80
2023/07/24 18:41:11;;;;;;;30.50;9.60;;;;;;;20.80;100.00;100658.86;107074;1283;59026;-81
2023/07/24 18:43:37;;;;;;;31.70;9.90;;;;;;;20.79;100.00;100657.42;106836;1283;75103;-81
2023/07/24 18:46:09;;;;;;;29.40;9.70;;;;;;;20.72;100.00;100658.86;107050;1283;59031;-79
2023/07/24 18:48:36;;;;;;;29.40;10.00;;;;;;;20.61;100.00;100658.31;107010;1283;72500;-80
2023/07/24 18:51:02;;;;;;;31.20;10.40;;;;;;;20.48;100.00;100655.45;107020;1288;58993;-80
2023/07/24 18:53:29;;;;;;;32.70;9.80;;;;;;;20.37;100.00;100656.14;106819;1283;59096;-80
2023/07/24 18:55:55;;;;;;;31.10;10.00;;;;;;;20.27;100.00;100655.52;107045;1283;75354;-80
2023/07/24 18:58:20;;;;;;;35.00;10.10;;;;;;;20.17;100.00;100657.86;107088;1283;60323;-80
2023/07/24 19:00:46;;;;;;;29.30;10.00;;;;;;;20.09;100.00;100661.95;107050;1283;59082;-80
2023/07/24 19:03:11;;;;;;;29.40;9.20;;;;;;;20.06;100.00;100662.05;107052;1283;59096;-80
2023/07/24 19:05:37;;;;;;;21.10;8.80;;;;;;;20.06;100.00;100661.11;107087;1283;59108;-81
2023/07/24 19:08:03;;;;;;;30.60;9.60;;;;;;;20.05;100.00;100663.63;107115;1283;73457;-81
2023/07/24 19:17:11;;;;;;;26.90;9.00;;;;;;;19.87;100.00;100663.77;107031;1283;59285;-81
2023/07/24 19:19:38;;;;;;;30.40;9.10;;;;;;;19.74;100.00;100664.66;107046;1283;59122;-81
2023/07/24 19:22:04;;;;;;;28.50;9.10;;;;;;;19.64;100.00;100665.39;107135;1283;59019;-80
2023/07/24 19:24:29;;;;;;;22.70;8.80;;;;;;;19.56;100.00;100665.18;107114;1284;58325;-80
2023/07/24 19:26:55;;;;;;;30.30;9.10;;;;;;;19.48;100.00;100662.78;106670;1283;59451;-81
2023/07/24 19:29:20;;;;;;;30.10;9.90;;;;;;;19.39;100.00;100666.48;107030;1283;59098;-81
2023/07/24 19:31:46;;;;;;;24.40;9.50;;;;;;;19.30;100.00;100664.66;107155;1283;59044;-80
2023/07/24 19:34:12;;;;;;;23.50;8.60;;;;;;;19.23;100.00;100662.67;106788;1283;73684;-82
2023/07/24 19:36:37;;;;;;;21.70;8.30;;;;;;;19.15;100.00;100661.71;107059;1287;58918;-81
2023/07/24 19:39:05;;;;;;;27.90;9.80;;;;;;;19.08;100.00;100657.73;107079;1283;59944;-81
2023/07/24 19:41:31;;;;;;;27.80;9.10;;;;;;;19.04;100.00;100653.09;107152;1283;59106;-81
2023/07/24 19:43:57;;;;;;;33.60;9.90;;;;;;;19.00;100.00;100652.71;106890;1283;59013;-81
2023/07/24 19:46:22;;;;;;;38.90;10.50;;;;;;;18.96;100.00;100654.25;107071;1283;59072;-81
2023/07/24 19:48:48;;;;;;;26.90;9.60;;;;;;;18.91;100.00;100653.67;106616;1283;59437;-82
2023/07/24 19:51:13;;;;;;;29.00;8.90;;;;;;;18.83;100.00;100652.94;107083;1283;59054;-82
2023/07/24 19:53:39;;;;;;;28.50;9.60;;;;;;;18.77;100.00;100650.97;107059;1283;58981;-82
2023/07/24 19:56:05;;;;;;;27.20;9.20;;;;;;;18.74;100.00;100652.42;106743;1283;59197;-82
2023/07/24 19:58:35;;;;;;;27.80;9.00;;;;;;;18.71;100.00;100655.80;107069;1283;58957;-82
2023/07/24 20:01:02;;;;;;;29.10;10.10;;;;;;;18.72;100.00;100652.94;107027;1283;60067;-82
2023/07/24 20:03:28;;;;;;;27.40;9.30;;;;;;;18.74;100.00;100654.10;107029;1283;74692;-82
2023/07/24 20:05:59;;;;;;;20.90;9.50;;;;;;;18.76;100.00;100657.13;106863;1283;59248;-81
2023/07/24 20:08:27;;;;;;;23.10;9.30;;;;;;;18.75;100.00;100660.54;107005;1283;73672;-81
2023/07/24 20:10:55;;;;;;;29.30;10.10;;;;;;;18.74;100.00;100662.59;106640;1285;61586;-81
2023/07/24 20:13:21;;;;;;;24.00;8.60;;;;;;;18.75;100.00;100667.09;106568;1288;60119;-82
2023/07/24 20:15:46;;;;;;;26.20;10.00;;;;;;;18.74;100.00;100673.23;106611;1289;59086;-82
2023/07/24 20:18:12;;;;;;;24.80;9.90;;;;;;;18.73;100.00;100674.33;106575;1288;59102;-81
2023/07/24 20:20:38;;;;;;;26.00;9.30;;;;;;;18.71;100.00;100674.92;106589;1288;59104;-81
2023/07/24 20:23:04;;;;;;;25.30;9.40;;;;;;;18.64;100.00;100667.82;106586;1288;59109;-82
2023/07/24 20:25:30;;;;;;;24.30;9.00;;;;;;;18.61;100.00;100666.42;106639;1288;59560;-82
2023/07/24 20:27:56;;;;;;;25.60;9.10;;;;;;;18.60;100.00;100664.32;106607;1287;73432;-82
2023/07/24 20:30:21;;;;;;;23.20;8.70;;;;;;;18.59;100.00;100664.14;106576;1288;59134;-82
2023/07/24 20:32:49;;;;;;;22.20;8.70;;;;;;;18.53;100.00;100662.59;106245;1289;59170;-81
2023/07/24 20:35:14;;;;;;;17.10;8.30;;;;;;;18.47;100.00;100657.84;106586;1288;59282;-81
2023/07/24 20:37:40;;;;;;;21.60;8.40;;;;;;;18.46;100.00;100655.52;106592;1288;59100;-82
2023/07/24 20:40:06;;;;;;;24.50;8.60;;;;;;;18.44;100.00;100657.54;106583;1288;59201;-82
2023/07/24 20:42:32;;;;;;;20.60;8.50;;;;;;;18.41;100.00;100663.38;105943;1288;59170;-82
2023/07/24 20:44:57;;;;;;;24.00;9.10;;;;;;;18.38;100.00;100663.08;106880;1285;58984;-82
2023/07/24 20:47:23;;;;;;;24.50;9.00;;;;;;;18.33;100.00;100659.54;106562;1285;59757;-81
2023/07/24 20:49:49;;;;;;;23.80;8.80;;;;;;;18.32;100.00;100662.02;106968;1288;59262;-82
2023/07/24 20:52:14;;;;;;;24.00;8.50;;;;;;;18.28;100.00;100665.34;106806;1284;59114;-82
2023/07/24 20:54:41;;;;;;;22.60;8.90;;;;;;;18.23;100.00;100663.28;106607;1286;59177;-82
2023/07/24 20:57:07;;;;;;;17.70;9.00;;;;;;;18.22;100.00;100662.61;107005;1285;59085;-82
2023/07/24 20:59:33;;;;;;;21.70;8.60;;;;;;;18.20;100.00;100661.11;106507;1289;59415;-82
2023/07/24 21:01:58;;;;;;;20.20;9.30;;;;;;;18.21;100.00;100662.69;107068;1285;59952;-81
2023/07/24 21:04:24;;;;;;;13.90;7.70;;;;;;;18.17;100.00;100661.09;107169;1284;62596;-81
2023/07/24 21:06:50;;;;;;;20.60;8.60;;;;;;;18.07;100.00;100657.70;107251;1285;59076;-82
2023/07/24 21:09:16;;;;;;;28.80;8.90;;;;;;;18.04;100.00;100656.23;106986;1284;58978;-82
2023/07/24 21:11:41;;;;;;;17.90;8.50;;;;;;;18.04;100.00;100661.30;106856;1286;59197;-82
2023/07/24 21:14:07;;;;;;;21.70;9.00;;;;;;;18.01;100.00;100659.33;106961;1285;59062;-82
2023/07/24 21:16:32;;;;;;;21.30;8.30;;;;;;;17.96;100.00;100654.31;107008;1285;59455;-82
2023/07/24 21:18:58;;;;;;;21.20;8.90;;;;;;;17.96;100.00;100653.42;106971;1283;75453;-82
2023/07/24 21:21:23;;;;;;;19.80;9.10;;;;;;;17.97;100.00;100651.40;107059;1286;59048;-82
2023/07/24 21:23:49;;;;;;;18.50;9.50;;;;;;;17.95;100.00;100650.41;107012;1283;59030;-82
2023/07/24 21:26:14;;;;;;;19.90;8.50;;;;;;;17.93;100.00;100651.81;107067;1283;59031;-82
2023/07/24 21:28:40;;;;;;;18.20;9.50;;;;;;;17.90;100.00;100650.56;107156;1283;59138;-82
2023/07/24 21:31:10;;;;;;;18.90;9.50;;;;;;;17.91;100.00;100645.54;107075;1283;74340;-82
2023/07/24 21:33:35;;;;;;;27.70;10.20;;;;;;;17.90;100.00;100642.64;107010;1283;72331;-82
2023/07/24 21:36:03;;;;;;;25.70;10.00;;;;;;;17.88;100.00;100640.36;106727;1283;59071;-82
2023/07/24 21:38:29;;;;;;;23.00;10.50;;;;;;;17.87;100.00;100633.40;106647;1283;59354;-83
2023/07/24 21:40:55;;;;;;;25.00;11.00;;;;;;;17.80;100.00;100630.13;107048;1283;59722;-82
2023/07/24 21:43:21;;;;;;;20.30;10.50;;;;;;;17.76;100.00;100630.52;107086;1283;59150;-82
2023/07/24 21:45:47;;;;;;;24.20;10.30;;;;;;;17.72;100.00;100631.33;107044;1283;58992;-82
2023/07/24 21:48:13;;;;;;;24.20;11.30;;;;;;;17.65;100.00;100632.92;107053;1283;58991;-82
2023/07/24 21:50:42;;;;;;;22.90;10.50;;;;;;;17.61;100.00;100635.58;107039;1283;58981;-82
2023/07/24 21:53:08;;;;;;;26.90;10.60;;;;;;;17.61;100.00;100634.81;107060;1283;59048;-82
2023/07/24 21:55:38;;;;;;;30.40;13.40;;;;;;;17.64;100.00;100636.92;107066;1283;59439;-82
2023/07/24 21:58:04;;;;;;;34.20;13.70;;;;;;;17.70;100.00;100634.19;106788;1283;72641;-82
2023/07/24 22:00:30;;;;;;;29.30;13.00;;;;;;;17.71;100.00;100630.73;107020;1283;59002;-82
2023/07/24 22:02:55;;;;;;;22.00;11.30;;;;;;;17.68;100.00;100629.75;107041;1283;59164;-82
2023/07/24 22:05:20;;;;;;;24.30;11.60;;;;;;;17.65;100.00;100628.95;106753;1283;59202;-82
2023/07/24 22:07:46;;;;;;;22.20;11.40;;;;;;;17.61;100.00;100637.05;106876;1283;59121;-82
2023/07/24 22:10:12;;;;;;;25.30;11.90;;;;;;;17.56;100.00;100633.30;106645;1288;59643;-82
2023/07/24 22:12:37;;;;;;;26.40;11.80;;;;;;;17.49;100.00;100629.69;107072;1283;59049;-81
2023/07/24 22:15:03;;;;;;;22.10;10.80;;;;;;;17.47;100.00;100632.49;106737;1283;59240;-82
2023/07/24 22:17:28;;;;;;;23.90;11.30;;;;;;;17.44;100.00;100636.11;106904;1283;59131;-80
2023/07/24 22:20:17;;;;;;;;;;;;;;;;;;;;;
2023/07/24 22:22:42;;;;;;;28.40;12.70;;;;;;;17.38;100.00;100642.46;106404;1283;59081;-81
2023/07/24 22:25:08;;;;;;;24.00;11.20;;;;;;;17.35;100.00;100634.29;107054;1283;59048;-81
2023/07/24 22:27:34;;;;;;;24.70;11.60;;;;;;;17.31;100.00;100630.66;107040;1283;59530;-82
2023/07/24 22:29:59;;;;;;;24.20;11.70;;;;;;;17.26;100.00;100631.91;107028;1283;59047;-82
2023/07/24 22:32:25;;;;;;;22.20;11.10;;;;;;;17.22;100.00;100632.19;107100;1283;59068;-82
2023/07/24 22:34:51;;;;;;;26.40;11.50;;;;;;;17.21;100.00;100630.16;106824;1283;75881;-82
2023/07/24 22:37:18;;;;;;;27.80;12.50;;;;;;;17.18;100.00;100629.40;107027;1283;74352;-82
2023/07/24 22:39:44;;;;;;;24.30;11.50;;;;;;;17.18;100.00;100632.67;107063;1283;73167;-82
2023/07/24 22:42:10;;;;;;;26.30;12.50;;;;;;;17.18;100.00;100634.51;107074;1283;58934;-82
2023/07/24 22:44:36;;;;;;;25.90;11.90;;;;;;;17.12;100.00;100633.27;107053;1283;59125;-80
2023/07/24 22:47:02;;;;;;;22.70;10.20;;;;;;;17.10;100.00;100628.21;107049;1283;59068;-82
2023/07/24 22:49:27;;;;;;;22.00;10.90;;;;;;;17.08;100.00;100635.16;107050;1283;59152;-82
2023/07/24 22:51:53;;;;;;;21.60;10.90;;;;;;;17.05;100.00;100637.41;106544;1283;59068;-82
2023/07/24 22:54:18;;;;;;;20.30;11.60;;;;;;;17.01;100.00;100636.38;106758;1283;59086;-82
2023/07/24 22:56:44;;;;;;;19.70;11.00;;;;;;;17.00;100.00;100637.53;107068;1283;59106;-82
2023/07/24 22:59:21;;;;;;;21.20;10.60;;;;;;;16.98;100.00;100630.88;106550;1283;59575;-82
2023/07/24 23:01:48;;;;;;;27.90;12.20;;;;;;;16.96;100.00;100625.64;107006;1283;72380;-82
2023/07/24 23:04:14;;;;;;;23.30;10.60;;;;;;;16.92;100.00;100622.14;107020;1283;61595;-81
2023/07/24 23:06:39;;;;;;;20.20;10.20;;;;;;;16.87;100.00;100620.59;107097;1283;59277;-82
2023/07/24 23:09:05;;;;;;;15.50;9.10;;;;;;;16.83;100.00;100618.27;107004;1283;59055;-82
2023/07/24 23:11:31;;;;;;;17.20;10.20;;;;;;;16.75;100.00;100625.67;106694;1283;59154;-82
2023/07/24 23:13:57;;;;;;;21.40;10.20;;;;;;;16.69;100.00;100622.84;107047;1283;59168;-82
2023/07/24 23:16:23;;;;;;;25.00;11.00;;;;;;;16.65;100.00;100622.69;107013;1283;59117;-82
2023/07/24 23:18:49;;;;;;;23.90;10.20;;;;;;;16.64;100.00;100621.84;107053;1283;59423;-82
2023/07/24 23:21:14;;;;;;;20.70;11.10;;;;;;;16.63;100.00;100626.21;107051;1283;74222;-82
2023/07/24 23:23:40;;;;;;;21.20;10.30;;;;;;;16.61;100.00;100622.73;107043;1283;59078;-82
2023/07/24 23:26:06;;;;;;;21.80;13.00;;;;;;;16.61;100.00;100619.84;107022;1285;58945;-82
2023/07/24 23:28:31;;;;;;;20.20;11.00;;;;;;;16.66;100.00;100621.45;107069;1283;59029;-82
2023/07/24 23:30:57;;;;;;;22.40;12.30;;;;;;;16.66;100.00;100619.37;107044;1283;59353;-82
2023/07/24 23:33:22;;;;;;;20.90;11.60;;;;;;;16.66;100.00;100614.57;106914;1283;59110;-82
2023/07/24 23:35:51;;;;;;;21.80;11.50;;;;;;;16.66;100.00;100614.18;107034;1283;59013;-82
2023/07/24 23:38:16;;;;;;;25.20;14.60;;;;;;;16.63;100.00;100610.74;107072;1283;61413;-82
2023/07/24 23:40:41;;;;;;;29.50;14.50;;;;;;;16.59;100.00;100607.41;106728;1283;59258;-82
2023/07/24 23:43:07;;;;;;;30.20;16.20;;;;;;;16.57;100.00;100610.26;107075;1283;59056;-81
2023/07/24 23:45:33;;;;;;;30.40;16.80;;;;;;;16.55;100.00;100603.92;106628;1283;59103;-82
2023/07/24 23:47:59;;;;;;;25.30;15.20;;;;;;;16.52;100.00;100608.78;107058;1283;58982;-82
2023/07/24 23:50:24;;;;;;;29.30;15.80;;;;;;;16.45;100.00;100613.31;107093;1283;59185;-81
2023/07/24 23:52:50;;;;;;;28.40;16.10;;;;;;;16.44;100.00;100616.86;107069;1283;60106;-81
2023/07/24 23:55:16;;;;;;;25.20;15.10;;;;;;;16.43;100.00;100617.92;106543;1283;59025;-81
2023/07/24 23:57:42;;;;;;;26.50;15.00;;;;;;;16.38;100.00;100621.91;107097;1283;59012;-82
